createdAt,value
2019-03-24T00:00:08.221Z,31.53
2019-03-24T00:02:36.840Z,32.47
2019-03-24T00:05:06.366Z,30.40
2019-03-24T00:07:34.902Z,30.07
2019-03-24T00:10:04.523Z,30.37
2019-03-24T00:12:32.987Z,29.10
2019-03-24T00:15:01.552Z,29.87
2019-03-24T00:17:30.251Z,29.90
2019-03-24T00:19:59.060Z,29.53
2019-03-24T00:22:27.759Z,30.17
2019-03-24T00:24:56.574Z,30.00
2019-03-24T00:27:25.425Z,30.90
2019-03-24T00:29:57.516Z,30.40
2019-03-24T00:32:25.972Z,30.53
2019-03-24T00:34:54.470Z,29.93
2019-03-24T00:37:23.282Z,29.60
2019-03-24T00:39:52.116Z,28.43
2019-03-24T00:42:20.934Z,29.73
2019-03-24T00:44:49.784Z,29.60
2019-03-24T00:47:18.573Z,29.10
2019-03-24T00:49:47.453Z,30.90
2019-03-24T00:52:15.978Z,29.20
2019-03-24T00:54:44.592Z,28.70
2019-03-24T00:57:13.300Z,30.90
2019-03-24T00:59:42.151Z,28.73
2019-03-24T01:02:10.977Z,29.57
2019-03-24T01:04:39.404Z,28.50
2019-03-24T01:07:08.001Z,28.23
2019-03-24T01:09:36.829Z,29.97
2019-03-24T01:12:05.786Z,29.27
2019-03-24T01:14:34.482Z,29.90
2019-03-24T01:17:03.322Z,29.53
2019-03-24T01:19:32.155Z,28.90
2019-03-24T01:22:00.964Z,31.60
2019-03-24T01:24:29.918Z,30.50
2019-03-24T01:27:00.265Z,30.77
2019-03-24T01:29:29.132Z,31.53
2019-03-24T01:31:57.945Z,29.73
2019-03-24T01:34:26.767Z,29.70
2019-03-24T01:36:55.853Z,31.93
2019-03-24T01:39:24.292Z,29.90
2019-03-24T01:41:53.098Z,30.90
2019-03-24T01:44:21.905Z,30.53
2019-03-24T01:46:50.740Z,30.47
2019-03-24T01:49:19.151Z,29.97
2019-03-24T01:51:47.760Z,31.10
2019-03-24T01:54:16.464Z,30.33
2019-03-24T01:56:45.235Z,29.43
2019-03-24T01:59:13.711Z,32.43
2019-03-24T02:01:42.136Z,29.50
2019-03-24T02:04:10.563Z,32.27
2019-03-24T02:06:39.208Z,31.63
2019-03-24T02:09:08.345Z,31.03
2019-03-24T02:11:37.012Z,31.43
2019-03-24T02:14:05.816Z,30.77
2019-03-24T02:16:34.521Z,31.00
2019-03-24T02:19:02.985Z,31.80
2019-03-24T02:21:32.181Z,32.60
2019-03-24T02:24:00.641Z,32.93
2019-03-24T02:26:29.164Z,32.40
2019-03-24T02:28:58.055Z,33.67
2019-03-24T02:31:26.770Z,31.80
2019-03-24T02:33:55.600Z,33.10
2019-03-24T02:36:24.416Z,33.33
2019-03-24T02:38:53.240Z,35.03
2019-03-24T02:41:22.094Z,32.47
2019-03-24T02:43:50.917Z,33.77
2019-03-24T02:46:24.700Z,33.77
2019-03-24T02:48:50.119Z,33.10
2019-03-24T02:51:18.762Z,34.17
2019-03-24T02:53:47.591Z,34.77
2019-03-24T02:56:16.049Z,33.73
2019-03-24T02:58:44.442Z,34.77
2019-03-24T03:01:13.333Z,35.47
2019-03-24T03:03:41.796Z,35.93
2019-03-24T03:06:10.575Z,36.23
2019-03-24T03:08:39.316Z,36.40
2019-03-24T03:11:07.920Z,35.20
2019-03-24T03:13:36.739Z,34.13
2019-03-24T03:16:05.681Z,35.47
2019-03-24T03:18:34.419Z,35.63
2019-03-24T03:21:03.262Z,35.27
2019-03-24T03:23:32.198Z,35.93
2019-03-24T03:26:00.955Z,35.03
2019-03-24T03:28:29.783Z,35.10
2019-03-24T03:30:58.691Z,35.50
2019-03-24T03:33:27.527Z,34.17
2019-03-24T03:35:56.248Z,37.10
2019-03-24T03:38:24.706Z,36.63
2019-03-24T03:40:53.157Z,36.27
2019-03-24T03:43:21.973Z,37.50
2019-03-24T03:45:50.792Z,36.47
2019-03-24T03:48:19.669Z,34.83
2019-03-24T03:50:48.483Z,37.47
2019-03-24T03:53:17.349Z,34.23
2019-03-24T03:55:45.792Z,36.57
2019-03-24T03:58:14.284Z,35.60
2019-03-24T04:00:42.749Z,35.43
2019-03-24T04:03:11.398Z,36.63
2019-03-24T04:05:40.053Z,36.63
2019-03-24T04:08:09.269Z,36.70
2019-03-24T04:10:37.839Z,38.27
2019-03-24T04:13:06.286Z,37.83
2019-03-24T04:15:34.706Z,36.00
2019-03-24T04:18:03.225Z,34.87
2019-03-24T04:20:31.649Z,36.03
2019-03-24T04:23:00.149Z,35.67
2019-03-24T04:25:28.824Z,38.77
2019-03-24T04:27:57.452Z,36.67
2019-03-24T04:30:26.111Z,35.73
2019-03-24T04:32:54.817Z,38.03
2019-03-24T04:35:23.331Z,37.03
2019-03-24T04:37:52.145Z,37.50
2019-03-24T04:40:20.731Z,38.37
2019-03-24T04:42:52.638Z,36.63
2019-03-24T04:45:21.117Z,37.30
2019-03-24T04:47:49.531Z,37.80
2019-03-24T04:50:17.929Z,37.47
2019-03-24T04:52:46.620Z,36.90
2019-03-24T04:55:15.349Z,37.63
2019-03-24T04:57:44.123Z,37.70
2019-03-24T05:00:13.342Z,37.47
2019-03-24T05:02:41.800Z,37.17
2019-03-24T05:05:11.403Z,36.57
2019-03-24T05:07:41.037Z,37.67
2019-03-24T05:10:12.641Z,36.57
2019-03-24T05:12:41.249Z,36.30
2019-03-24T05:15:10.346Z,36.40
2019-03-24T05:17:39.032Z,38.73
2019-03-24T05:20:07.694Z,37.90
2019-03-24T05:22:36.204Z,38.97
2019-03-24T05:25:05.351Z,39.43
2019-03-24T05:27:33.763Z,36.40
2019-03-24T05:30:02.551Z,39.43
2019-03-24T05:32:31.001Z,38.27
2019-03-24T05:34:59.619Z,38.97
2019-03-24T05:37:28.275Z,37.03
2019-03-24T05:39:56.993Z,38.50
2019-03-24T05:42:25.595Z,37.20
2019-03-24T05:44:54.127Z,36.57
2019-03-24T05:47:22.932Z,35.50
2019-03-24T05:49:51.683Z,37.60
2019-03-24T05:52:20.515Z,39.10
2019-03-24T05:54:49.091Z,39.10
2019-03-24T05:57:17.923Z,36.37
2019-03-24T05:59:46.380Z,36.87
2019-03-24T06:02:14.843Z,39.80
2019-03-24T06:04:43.671Z,36.43
2019-03-24T06:07:12.420Z,38.77
2019-03-24T06:09:41.232Z,37.27
2019-03-24T06:12:10.082Z,38.33
2019-03-24T06:14:38.915Z,37.37
2019-03-24T06:17:09.393Z,37.93
2019-03-24T06:19:38.208Z,38.87
2019-03-24T06:22:07.031Z,37.60
2019-03-24T06:24:35.846Z,37.57
2019-03-24T06:27:04.749Z,38.80
2019-03-24T06:29:33.462Z,40.40
2019-03-24T06:32:01.874Z,40.13
2019-03-24T06:34:30.348Z,37.67
2019-03-24T06:36:58.755Z,37.70
2019-03-24T06:39:27.222Z,40.47
2019-03-24T06:41:55.681Z,40.30
2019-03-24T06:44:24.292Z,39.63
2019-03-24T06:46:53.022Z,38.27
2019-03-24T06:49:21.912Z,41.50
2019-03-24T06:51:50.575Z,41.33
2019-03-24T06:54:19.008Z,40.27
2019-03-24T06:56:47.634Z,41.93
2019-03-24T06:59:16.315Z,39.80
2019-03-24T07:01:45.156Z,39.60
2019-03-24T07:04:13.568Z,40.30
2019-03-24T07:06:42.097Z,41.87
2019-03-24T07:09:10.804Z,40.40
2019-03-24T07:11:39.247Z,40.83
2019-03-24T07:14:07.809Z,40.67
2019-03-24T07:16:36.539Z,41.47
2019-03-24T07:19:05.024Z,41.70
2019-03-24T07:21:33.573Z,41.07
2019-03-24T07:24:03.103Z,40.73
2019-03-24T07:26:33.265Z,42.07
2019-03-24T07:29:03.236Z,40.90
2019-03-24T07:31:31.884Z,43.07
2019-03-24T07:34:00.793Z,42.67
2019-03-24T07:36:29.373Z,42.78
2019-03-24T07:38:57.779Z,40.30
2019-03-24T07:41:26.223Z,42.90
2019-03-24T07:43:54.665Z,42.33
2019-03-24T07:46:23.759Z,41.03
2019-03-24T07:48:52.427Z,40.43
2019-03-24T07:51:20.876Z,42.13
2019-03-24T07:53:49.337Z,42.73
2019-03-24T07:56:17.837Z,39.97
2019-03-24T07:58:46.608Z,39.83
2019-03-24T08:01:15.454Z,41.57
2019-03-24T08:03:43.863Z,42.67
2019-03-24T08:06:12.762Z,41.60
2019-03-24T08:08:44.373Z,41.30
2019-03-24T08:11:11.396Z,41.70
2019-03-24T08:13:39.812Z,39.90
2019-03-24T08:16:08.644Z,40.87
2019-03-24T08:18:37.090Z,39.23
2019-03-24T08:21:06.029Z,40.53
2019-03-24T08:23:34.849Z,39.23
2019-03-24T08:26:07.145Z,39.43
2019-03-24T08:28:36.091Z,41.17
2019-03-24T08:31:04.948Z,38.80
2019-03-24T08:33:33.381Z,39.37
2019-03-24T08:36:01.834Z,40.30
2019-03-24T08:38:30.557Z,39.30
2019-03-24T08:40:58.964Z,38.47
2019-03-24T08:43:28.098Z,40.30
2019-03-24T08:45:56.862Z,39.50
2019-03-24T08:48:25.364Z,39.60
2019-03-24T08:50:54.295Z,40.37
2019-03-24T08:53:22.708Z,41.77
2019-03-24T08:55:51.392Z,39.07
2019-03-24T08:58:19.859Z,40.57
2019-03-24T09:00:49.824Z,38.57
2019-03-24T09:03:18.659Z,42.97
2019-03-24T09:05:47.137Z,39.53
2019-03-24T09:08:15.775Z,39.20
2019-03-24T09:10:44.364Z,38.97
2019-03-24T09:13:14.303Z,38.03
2019-03-24T09:15:43.316Z,39.10
2019-03-24T09:18:11.746Z,38.70
2019-03-24T09:20:41.815Z,40.50
2019-03-24T09:23:10.853Z,41.27
2019-03-24T09:25:39.693Z,39.43
2019-03-24T09:28:09.300Z,39.20
2019-03-24T09:30:39.146Z,37.30
2019-03-24T09:33:07.966Z,38.37
2019-03-24T09:35:36.389Z,38.27
2019-03-24T09:38:05.455Z,40.20
2019-03-24T09:40:37.100Z,37.93
2019-03-24T09:43:06.312Z,38.90
2019-03-24T09:45:34.736Z,38.90
2019-03-24T09:48:03.375Z,38.87
2019-03-24T09:50:32.390Z,39.90
2019-03-24T09:53:01.002Z,39.40
2019-03-24T09:55:29.966Z,39.00
2019-03-24T09:57:58.681Z,42.70
2019-03-24T10:00:27.128Z,39.27
2019-03-24T10:02:55.887Z,39.17
2019-03-24T10:05:24.772Z,37.90
2019-03-24T10:07:53.688Z,39.90
2019-03-24T10:10:22.940Z,39.50
2019-03-24T10:12:51.602Z,39.03
2019-03-24T10:15:20.062Z,38.03
2019-03-24T10:17:48.566Z,38.90
2019-03-24T10:20:17.093Z,40.03
2019-03-24T10:22:45.908Z,37.63
2019-03-24T10:25:14.358Z,38.53
2019-03-24T10:27:42.795Z,36.60
2019-03-24T10:30:11.497Z,36.77
2019-03-24T10:32:40.345Z,38.00
2019-03-24T10:35:09.311Z,37.50
2019-03-24T10:37:37.740Z,38.27
2019-03-24T10:40:08.397Z,37.00
2019-03-24T10:42:55.595Z,37.37
2019-03-24T10:45:24.123Z,36.83
2019-03-24T10:47:52.817Z,38.30
2019-03-24T10:50:21.274Z,38.33
2019-03-24T10:52:50.062Z,37.93
2019-03-24T10:55:18.513Z,37.10
2019-03-24T10:57:47.304Z,38.07
2019-03-24T11:00:19.341Z,39.03
2019-03-24T11:02:47.810Z,39.27
2019-03-24T11:05:16.385Z,38.10
2019-03-24T11:07:45.280Z,38.03
2019-03-24T11:10:15.331Z,37.10
2019-03-24T11:12:44.235Z,39.70
2019-03-24T11:15:13.139Z,39.57
2019-03-24T11:17:41.563Z,39.67
2019-03-24T11:20:10.478Z,36.90
2019-03-24T11:22:39.358Z,37.97
2019-03-24T11:25:09.845Z,38.47
2019-03-24T11:27:38.888Z,38.30
2019-03-24T11:30:12.880Z,38.73
2019-03-24T11:32:41.839Z,36.93
2019-03-24T11:35:11.417Z,36.50
2019-03-24T11:37:40.336Z,37.27
2019-03-24T11:40:10.275Z,36.83
2019-03-24T11:42:38.855Z,38.40
2019-03-24T11:45:10.267Z,37.77
2019-03-24T11:47:38.861Z,37.43
2019-03-24T11:50:09.243Z,40.80
2019-03-24T11:52:38.368Z,37.53
2019-03-24T11:55:09.032Z,38.63
2019-03-24T11:57:37.816Z,37.10
2019-03-24T12:00:12.749Z,38.63
2019-03-24T12:02:41.505Z,39.67
2019-03-24T12:05:11.241Z,38.63
2019-03-24T12:07:40.086Z,39.37
2019-03-24T12:10:10.531Z,39.83
2019-03-24T12:12:39.017Z,37.50
2019-03-24T12:15:08.788Z,39.53
2019-03-24T12:17:38.068Z,36.97
2019-03-24T12:20:08.367Z,38.63
2019-03-24T12:22:36.883Z,38.10
2019-03-24T12:25:06.541Z,38.67
2019-03-24T12:27:35.478Z,38.40
2019-03-24T12:30:06.683Z,38.77
2019-03-24T12:32:35.085Z,40.03
2019-03-24T12:35:06.549Z,37.97
2019-03-24T12:37:35.023Z,39.60
2019-03-24T12:40:05.623Z,40.37
2019-03-24T12:42:34.554Z,38.47
2019-03-24T12:45:03.174Z,40.17
2019-03-24T12:47:31.575Z,42.23
2019-03-24T12:50:08.717Z,40.70
2019-03-24T12:52:30.428Z,40.27
2019-03-24T12:54:58.891Z,40.07
2019-03-24T12:57:27.343Z,40.60
2019-03-24T12:59:56.029Z,39.17
2019-03-24T13:02:24.487Z,40.93
2019-03-24T13:04:53.236Z,42.80
2019-03-24T13:07:21.654Z,41.13
2019-03-24T13:09:50.558Z,41.93
2019-03-24T13:12:19.562Z,39.87
2019-03-24T13:14:49.500Z,41.67
2019-03-24T13:17:18.299Z,43.97
2019-03-24T13:19:46.751Z,41.33
2019-03-24T13:22:15.537Z,40.73
2019-03-24T13:24:44.312Z,40.43
2019-03-24T13:27:15.896Z,41.27
2019-03-24T13:29:45.042Z,39.83
2019-03-24T13:32:13.843Z,39.30
2019-03-24T13:34:42.247Z,37.50
2019-03-24T13:37:11.111Z,38.27
2019-03-24T13:39:41.334Z,36.10
2019-03-24T13:42:09.707Z,35.77
2019-03-24T13:44:38.598Z,35.23
2019-03-24T13:47:07.068Z,35.70
2019-03-24T13:49:35.504Z,34.63
2019-03-24T13:52:04.046Z,35.37
2019-03-24T13:54:32.702Z,34.97
2019-03-24T13:57:01.500Z,34.93
2019-03-24T13:59:30.031Z,33.63
2019-03-24T14:01:58.837Z,36.10
2019-03-24T14:04:27.708Z,33.47
2019-03-24T14:06:56.185Z,35.27
2019-03-24T14:09:25.008Z,33.67
2019-03-24T14:11:53.978Z,30.57
2019-03-24T14:14:22.393Z,29.17
2019-03-24T14:16:51.148Z,28.00
2019-03-24T14:19:19.643Z,28.13
2019-03-24T14:21:48.249Z,27.23
2019-03-24T14:24:17.198Z,25.70
2019-03-24T14:27:10.548Z,24.50
2019-03-24T14:29:42.348Z,26.10
2019-03-24T14:32:11.243Z,26.57
2019-03-24T14:34:40.114Z,26.37
2019-03-24T14:37:08.524Z,27.00
2019-03-24T14:39:38.584Z,26.47
2019-03-24T14:42:07.118Z,29.87
2019-03-24T14:44:35.809Z,28.70
2019-03-24T14:47:05.131Z,30.93
2019-03-24T14:49:33.829Z,28.37
2019-03-24T14:52:02.335Z,26.30
2019-03-24T14:54:31.083Z,26.73
2019-03-24T14:56:59.799Z,26.00
2019-03-24T14:59:28.320Z,25.13
2019-03-24T15:01:57.057Z,24.63
2019-03-24T15:04:25.481Z,25.00
2019-03-24T15:06:54.227Z,26.17
2019-03-24T15:09:22.669Z,26.03
2019-03-24T15:12:12.628Z,24.60
2019-03-24T15:14:41.096Z,27.03
2019-03-24T15:17:09.781Z,24.43
2019-03-24T15:19:38.246Z,24.33
2019-03-24T15:22:07.084Z,26.73
2019-03-24T15:24:35.524Z,26.63
2019-03-24T15:27:40.857Z,27.47
2019-03-24T15:30:09.945Z,26.53
2019-03-24T15:32:38.662Z,25.83
2019-03-24T15:35:07.957Z,26.70
2019-03-24T15:37:36.775Z,26.70
2019-03-24T15:40:06.608Z,27.37
2019-03-24T15:42:35.558Z,26.23
2019-03-24T15:45:06.215Z,26.50
2019-03-24T15:47:34.901Z,28.60
2019-03-24T15:50:05.062Z,28.47
2019-03-24T15:52:33.811Z,26.87
2019-03-24T15:55:02.233Z,29.30
2019-03-24T15:57:31.029Z,28.63
2019-03-24T15:59:59.433Z,26.83
2019-03-24T16:02:27.849Z,28.00
2019-03-24T16:04:56.884Z,26.70
2019-03-24T16:07:25.863Z,23.33
2019-03-24T16:09:54.742Z,22.90
2019-03-24T16:12:23.204Z,24.50
2019-03-24T16:14:51.914Z,24.53
2019-03-24T16:17:20.722Z,22.50
2019-03-24T16:19:49.164Z,23.07
2019-03-24T16:22:17.628Z,23.10
2019-03-24T16:24:46.038Z,22.90
2019-03-24T16:27:14.499Z,21.43
2019-03-24T16:29:43.811Z,21.23
2019-03-24T16:32:12.223Z,19.83
2019-03-24T16:34:40.843Z,19.40
2019-03-24T16:37:09.802Z,19.93
2019-03-24T16:39:38.560Z,17.47
2019-03-24T16:42:06.996Z,16.73
2019-03-24T16:44:35.731Z,15.87
2019-03-24T16:47:04.170Z,15.07
2019-03-24T16:49:32.972Z,14.77
2019-03-24T16:52:01.763Z,14.37
2019-03-24T16:54:30.233Z,12.37
2019-03-24T16:57:14.419Z,13.13
2019-03-24T16:59:43.160Z,11.83
2019-03-24T17:02:11.565Z,12.10
2019-03-24T17:04:40.221Z,11.50
2019-03-24T17:07:09.145Z,12.13
2019-03-24T17:09:37.620Z,12.37
2019-03-24T17:12:06.407Z,11.10
2019-03-24T17:14:35.312Z,11.60
2019-03-24T17:17:04.299Z,11.30
2019-03-24T17:19:33.083Z,12.57
2019-03-24T17:22:01.512Z,12.27
2019-03-24T17:24:30.357Z,12.63
2019-03-24T17:26:58.753Z,12.53
2019-03-24T17:29:27.162Z,11.73
2019-03-24T17:31:55.621Z,12.60
2019-03-24T17:34:24.397Z,12.27
2019-03-24T17:36:53.156Z,13.03
2019-03-24T17:39:21.702Z,12.70
2019-03-24T17:41:50.133Z,13.87
2019-03-24T17:44:18.937Z,13.73
2019-03-24T17:46:48.085Z,13.87
2019-03-24T17:49:16.976Z,13.33
2019-03-24T17:51:45.870Z,13.93
2019-03-24T17:54:14.672Z,13.37
2019-03-24T17:56:43.534Z,15.60
2019-03-24T17:59:14.380Z,14.43
2019-03-24T18:01:43.125Z,14.93
2019-03-24T18:04:11.602Z,14.90
2019-03-24T18:06:40.369Z,16.57
2019-03-24T18:09:09.334Z,16.73
2019-03-24T18:11:38.287Z,15.00
2019-03-24T18:14:07.127Z,14.57
2019-03-24T18:16:35.596Z,15.10
2019-03-24T18:19:04.082Z,15.13
2019-03-24T18:21:32.597Z,15.83
2019-03-24T18:24:01.475Z,16.40
2019-03-24T18:26:29.901Z,13.90
2019-03-24T18:28:58.755Z,15.33
2019-03-24T18:31:27.450Z,14.47
2019-03-24T18:33:56.201Z,15.67
2019-03-24T18:36:24.657Z,15.70
2019-03-24T18:38:53.398Z,15.90
2019-03-24T18:41:21.847Z,16.60
2019-03-24T18:43:50.511Z,17.73
2019-03-24T18:46:19.510Z,17.90
2019-03-24T18:48:48.158Z,18.53
2019-03-24T18:51:16.573Z,18.17
2019-03-24T18:53:45.085Z,18.80
2019-03-24T18:56:13.569Z,19.77
2019-03-24T18:58:42.242Z,21.40
2019-03-24T19:01:10.923Z,20.63
2019-03-24T19:03:39.404Z,22.47
2019-03-24T19:06:07.904Z,25.60
2019-03-24T19:08:36.317Z,24.83
2019-03-24T19:11:05.240Z,25.73
2019-03-24T19:13:34.175Z,27.30
2019-03-24T19:16:02.627Z,26.10
2019-03-24T19:18:31.266Z,26.47
2019-03-24T19:20:59.724Z,26.87
2019-03-24T19:23:28.229Z,27.90
2019-03-24T19:25:56.792Z,27.47
2019-03-24T19:28:25.246Z,27.47
2019-03-24T19:30:53.874Z,26.50
2019-03-24T19:33:22.757Z,28.10
2019-03-24T19:35:51.227Z,28.47
2019-03-24T19:38:20.773Z,26.83
2019-03-24T19:40:49.201Z,24.63
2019-03-24T19:43:17.684Z,24.87
2019-03-24T19:45:46.171Z,23.53
2019-03-24T19:48:14.969Z,24.37
2019-03-24T19:50:43.825Z,24.77
2019-03-24T19:53:12.526Z,24.53
2019-03-24T19:55:40.976Z,24.30
2019-03-24T19:58:09.728Z,24.93
2019-03-24T20:00:38.682Z,23.13
2019-03-24T20:03:07.171Z,23.13
2019-03-24T20:05:35.875Z,22.60
2019-03-24T20:08:04.742Z,21.27
2019-03-24T20:10:33.162Z,20.23
2019-03-24T20:13:02.165Z,17.90
2019-03-24T20:15:31.202Z,16.90
2019-03-24T20:18:00.148Z,16.07
2019-03-24T20:20:28.603Z,15.37
2019-03-24T20:22:57.481Z,14.23
2019-03-24T20:25:26.337Z,15.50
2019-03-24T20:27:57.932Z,14.67
2019-03-24T20:30:26.626Z,14.63
2019-03-24T20:32:55.308Z,15.57
2019-03-24T20:35:24.269Z,14.87
2019-03-24T20:37:53.282Z,14.60
2019-03-24T20:40:22.071Z,14.83
2019-03-24T20:42:50.711Z,14.27
2019-03-24T20:45:19.526Z,13.57
2019-03-24T20:47:47.959Z,12.87
2019-03-24T20:50:16.787Z,12.70
2019-03-24T20:52:45.573Z,12.10
2019-03-24T20:55:14.487Z,11.67
2019-03-24T20:57:42.994Z,10.27
2019-03-24T21:00:12.670Z,9.77
2019-03-24T21:02:41.082Z,9.57
2019-03-24T21:05:11.084Z,9.93
2019-03-24T21:07:39.862Z,9.43
2019-03-24T21:10:08.704Z,8.63
2019-03-24T21:12:37.658Z,7.67
2019-03-24T21:15:08.236Z,7.77
2019-03-24T21:17:36.713Z,8.13
2019-03-24T21:20:08.163Z,7.20
2019-03-24T21:22:36.572Z,7.13
2019-03-24T21:25:07.148Z,6.20
2019-03-24T21:27:36.016Z,6.10
2019-03-24T21:30:06.470Z,6.33
2019-03-24T21:32:34.926Z,5.90
2019-03-24T21:35:04.450Z,6.23
2019-03-24T21:37:32.873Z,6.07
2019-03-24T21:40:01.683Z,6.40
2019-03-24T21:42:30.101Z,6.63
2019-03-24T21:44:58.934Z,7.30
2019-03-24T21:47:27.404Z,7.73
2019-03-24T21:49:56.116Z,7.67
2019-03-24T21:52:24.515Z,7.40
2019-03-24T21:54:53.331Z,8.00
2019-03-24T21:57:21.742Z,7.47
2019-03-24T21:59:50.392Z,7.40
2019-03-24T22:02:19.262Z,6.93
2019-03-24T22:04:48.204Z,6.70
2019-03-24T22:07:16.894Z,6.00
2019-03-24T22:09:45.838Z,5.87
2019-03-24T22:12:14.373Z,6.00
2019-03-24T22:14:42.950Z,6.50
2019-03-24T22:17:11.383Z,6.33
2019-03-24T22:19:39.920Z,6.63
2019-03-24T22:22:08.538Z,7.00
2019-03-24T22:24:37.050Z,7.03
2019-03-24T22:27:05.764Z,7.07
2019-03-24T22:29:34.312Z,6.90
2019-03-24T22:32:02.845Z,6.27
2019-03-24T22:34:31.470Z,5.83
2019-03-24T22:37:00.102Z,5.90
2019-03-24T22:39:28.788Z,5.97
2019-03-24T22:41:57.340Z,5.40
2019-03-24T22:44:25.933Z,6.13
2019-03-24T22:46:54.538Z,5.43
2019-03-24T22:49:23.122Z,4.80
2019-03-24T22:51:51.658Z,5.03
2019-03-24T22:54:20.249Z,4.43
2019-03-24T22:56:49.166Z,5.17
2019-03-24T22:59:17.668Z,5.17
2019-03-24T23:01:46.463Z,4.67
2019-03-24T23:04:15.210Z,4.90
2019-03-24T23:06:43.815Z,4.87
2019-03-24T23:09:12.394Z,4.73
2019-03-24T23:11:41.116Z,5.43
2019-03-24T23:14:09.604Z,5.33
2019-03-24T23:16:38.140Z,4.67
2019-03-24T23:19:06.705Z,4.43
2019-03-24T23:21:35.372Z,4.10
2019-03-24T23:24:14.617Z,4.10
2019-03-24T23:26:34.286Z,3.23
2019-03-24T23:29:02.719Z,4.10
2019-03-24T23:31:33.947Z,4.20
2019-03-24T23:34:01.484Z,4.40
2019-03-24T23:36:29.966Z,4.30
2019-03-24T23:38:58.798Z,3.90
2019-03-24T23:41:27.233Z,4.63
2019-03-24T23:43:55.755Z,5.13
2019-03-24T23:46:24.354Z,4.67
2019-03-24T23:48:52.899Z,4.60
2019-03-24T23:51:21.575Z,4.83
2019-03-24T23:53:50.147Z,4.63
2019-03-24T23:56:18.776Z,5.37
2019-03-24T23:58:47.422Z,3.77
